Hinnerup, Denmark
Current Conditions -  °F | °C
As of 7:20 PM on Thursday 18 Dec 2014 (Local Time) from EKAH Reporting Station
Haze Haze  
Wind Chill: 45°   Ceiling: 300
Heat Index: 48°   Visibility: 1.6mi
Dew Point: 46°   Wind: 8mph
Humidity: 93%   Direction: 230°SW
Pressure: 29.32"   Gusts: NA
Location:  56.27°N, 10.06°E
Report Text: EKAH 181820Z AUTO 23007KT 180V270 2700NDV BR OVC003///09/08 Q0993
Loading
Personal Weather Stations






























Interactive Weather Map New forecast layout! Learn more

10-Day Weather Forecast

Advertisements
Track Severe Weather on mobile